sensor_id;sensor_type;location;lat;lon;timestamp;noise_LAeq;noise_LA_min;noise_LA_max;noise_LA01;noise_LA95
47109;Laerm;32856;51.422;6.794;2023-05-10T00:00:56;52.51;49.20;62.49;;
47109;Laerm;32856;51.422;6.794;2023-05-10T00:03:25;57.74;48.70;74.67;;
47109;Laerm;32856;51.422;6.794;2023-05-10T00:05:52;51.81;47.52;62.63;;
47109;Laerm;32856;51.422;6.794;2023-05-10T00:08:20;53.55;49.70;64.18;;
47109;Laerm;32856;51.422;6.794;2023-05-10T00:10:47;52.53;49.23;61.93;;
47109;Laerm;32856;51.422;6.794;2023-05-10T00:13:14;55.19;50.32;61.50;;
47109;Laerm;32856;51.422;6.794;2023-05-10T00:15:42;58.49;50.19;75.51;;
47109;Laerm;32856;51.422;6.794;2023-05-10T00:18:09;52.88;48.66;59.87;;
47109;Laerm;32856;51.422;6.794;2023-05-10T00:20:38;57.68;48.00;77.39;;
47109;Laerm;32856;51.422;6.794;2023-05-10T00:23:05;52.37;47.98;62.04;;
47109;Laerm;32856;51.422;6.794;2023-05-10T00:25:33;59.57;47.32;78.47;;
47109;Laerm;32856;51.422;6.794;2023-05-10T00:28:00;49.96;46.15;58.89;;
47109;Laerm;32856;51.422;6.794;2023-05-10T00:30:27;51.71;46.89;59.97;;
47109;Laerm;32856;51.422;6.794;2023-05-10T00:32:55;49.82;46.45;59.03;;
47109;Laerm;32856;51.422;6.794;2023-05-10T00:35:22;50.69;46.78;58.65;;
47109;Laerm;32856;51.422;6.794;2023-05-10T00:37:51;50.30;45.86;57.69;;
47109;Laerm;32856;51.422;6.794;2023-05-10T00:40:18;49.88;45.11;59.89;;
47109;Laerm;32856;51.422;6.794;2023-05-10T00:42:46;49.99;45.97;58.57;;
47109;Laerm;32856;51.422;6.794;2023-05-10T00:45:14;49.59;46.33;56.76;;
47109;Laerm;32856;51.422;6.794;2023-05-10T00:47:41;50.62;46.69;58.27;;
47109;Laerm;32856;51.422;6.794;2023-05-10T00:50:09;50.04;46.71;57.18;;
47109;Laerm;32856;51.422;6.794;2023-05-10T00:52:37;50.68;47.18;58.69;;
47109;Laerm;32856;51.422;6.794;2023-05-10T00:55:06;60.93;48.16;75.85;;
47109;Laerm;32856;51.422;6.794;2023-05-10T00:57:34;51.49;47.95;59.07;;
47109;Laerm;32856;51.422;6.794;2023-05-10T01:00:01;51.21;47.46;58.65;;
47109;Laerm;32856;51.422;6.794;2023-05-10T01:02:29;51.94;47.70;61.18;;
47109;Laerm;32856;51.422;6.794;2023-05-10T01:04:56;51.40;48.00;64.53;;
47109;Laerm;32856;51.422;6.794;2023-05-10T01:07:24;51.40;47.59;59.84;;
47109;Laerm;32856;51.422;6.794;2023-05-10T01:09:51;52.06;47.32;59.03;;
47109;Laerm;32856;51.422;6.794;2023-05-10T01:12:20;51.45;47.55;59.34;;
47109;Laerm;32856;51.422;6.794;2023-05-10T01:14:47;57.58;47.74;75.30;;
47109;Laerm;32856;51.422;6.794;2023-05-10T01:17:15;57.80;47.40;73.45;;
47109;Laerm;32856;51.422;6.794;2023-05-10T01:19:43;50.31;45.42;60.83;;
47109;Laerm;32856;51.422;6.794;2023-05-10T01:22:14;53.15;47.76;63.84;;
47109;Laerm;32856;51.422;6.794;2023-05-10T01:24:52;51.87;47.48;58.90;;
47109;Laerm;32856;51.422;6.794;2023-05-10T01:33:00;48.99;43.19;58.97;;
47109;Laerm;32856;51.422;6.794;2023-05-10T01:35:31;50.31;43.51;58.39;;
47109;Laerm;32856;51.422;6.794;2023-05-10T01:38:04;49.07;43.34;60.52;;
47109;Laerm;32856;51.422;6.794;2023-05-10T01:40:32;57.57;45.04;77.27;;
47109;Laerm;32856;51.422;6.794;2023-05-10T01:43:02;49.29;44.31;58.34;;
47109;Laerm;32856;51.422;6.794;2023-05-10T01:45:31;50.39;44.56;64.32;;
47109;Laerm;32856;51.422;6.794;2023-05-10T01:48:04;55.22;42.29;73.56;;
47109;Laerm;32856;51.422;6.794;2023-05-10T01:50:32;49.51;42.29;60.51;;
47109;Laerm;32856;51.422;6.794;2023-05-10T01:53:01;55.92;44.39;75.05;;
47109;Laerm;32856;51.422;6.794;2023-05-10T01:55:30;57.24;43.19;77.30;;
47109;Laerm;32856;51.422;6.794;2023-05-10T01:58:02;49.09;43.39;58.96;;
47109;Laerm;32856;51.422;6.794;2023-05-10T02:00:29;48.49;43.77;57.86;;
47109;Laerm;32856;51.422;6.794;2023-05-10T02:02:58;49.33;43.24;60.51;;
47109;Laerm;32856;51.422;6.794;2023-05-10T02:05:28;47.93;43.86;57.68;;
47109;Laerm;32856;51.422;6.794;2023-05-10T02:07:57;49.59;44.51;56.90;;
47109;Laerm;32856;51.422;6.794;2023-05-10T02:10:27;48.20;42.59;59.37;;
47109;Laerm;32856;51.422;6.794;2023-05-10T02:12:55;62.36;45.48;79.47;;
47109;Laerm;32856;51.422;6.794;2023-05-10T02:15:25;49.73;43.58;60.00;;
47109;Laerm;32856;51.422;6.794;2023-05-10T02:17:54;57.97;44.65;77.35;;
47109;Laerm;32856;51.422;6.794;2023-05-10T02:20:22;53.38;44.43;69.21;;
47109;Laerm;32856;51.422;6.794;2023-05-10T02:22:52;62.00;44.07;79.16;;
47109;Laerm;32856;51.422;6.794;2023-05-10T02:25:21;49.42;43.29;56.33;;
47109;Laerm;32856;51.422;6.794;2023-05-10T02:27:49;60.40;44.08;77.14;;
47109;Laerm;32856;51.422;6.794;2023-05-10T02:30:17;52.21;45.72;69.31;;
47109;Laerm;32856;51.422;6.794;2023-05-10T02:32:45;51.45;47.26;58.13;;
47109;Laerm;32856;51.422;6.794;2023-05-10T02:35:14;61.78;45.39;81.01;;
47109;Laerm;32856;51.422;6.794;2023-05-10T02:37:42;53.19;43.94;70.16;;
47109;Laerm;32856;51.422;6.794;2023-05-10T02:40:12;54.74;46.76;75.20;;
47109;Laerm;32856;51.422;6.794;2023-05-10T02:42:41;55.86;45.75;74.40;;
47109;Laerm;32856;51.422;6.794;2023-05-10T02:45:10;65.49;46.55;81.18;;
47109;Laerm;32856;51.422;6.794;2023-05-10T02:47:38;62.12;46.95;77.19;;
47109;Laerm;32856;51.422;6.794;2023-05-10T02:50:06;56.51;45.33;72.63;;
47109;Laerm;32856;51.422;6.794;2023-05-10T02:52:36;54.45;44.39;69.36;;
47109;Laerm;32856;51.422;6.794;2023-05-10T02:55:06;59.97;46.20;75.96;;
47109;Laerm;32856;51.422;6.794;2023-05-10T02:57:38;58.52;48.37;74.75;;
47109;Laerm;32856;51.422;6.794;2023-05-10T03:00:08;59.85;47.44;77.35;;
47109;Laerm;32856;51.422;6.794;2023-05-10T03:02:35;59.19;48.78;76.36;;
47109;Laerm;32856;51.422;6.794;2023-05-10T03:05:03;59.04;48.76;75.05;;
47109;Laerm;32856;51.422;6.794;2023-05-10T03:07:30;59.65;49.21;74.46;;
47109;Laerm;32856;51.422;6.794;2023-05-10T03:09:58;61.98;50.20;79.00;;
47109;Laerm;32856;51.422;6.794;2023-05-10T03:12:27;61.43;50.31;77.46;;
47109;Laerm;32856;51.422;6.794;2023-05-10T03:15:00;62.27;48.95;78.14;;
47109;Laerm;32856;51.422;6.794;2023-05-10T03:17:32;64.63;49.85;80.72;;
47109;Laerm;32856;51.422;6.794;2023-05-10T03:20:03;64.60;50.62;81.51;;
47109;Laerm;32856;51.422;6.794;2023-05-10T03:22:32;60.62;50.18;75.26;;
47109;Laerm;32856;51.422;6.794;2023-05-10T03:25:02;62.72;49.97;78.14;;
47109;Laerm;32856;51.422;6.794;2023-05-10T03:27:32;60.38;49.98;79.03;;
47109;Laerm;32856;51.422;6.794;2023-05-10T03:30:02;61.40;50.15;75.40;;
47109;Laerm;32856;51.422;6.794;2023-05-10T03:32:31;64.06;50.86;77.14;;
47109;Laerm;32856;51.422;6.794;2023-05-10T03:35:00;60.75;50.57;77.35;;
47109;Laerm;32856;51.422;6.794;2023-05-10T03:37:28;62.28;51.47;76.55;;
47109;Laerm;32856;51.422;6.794;2023-05-10T03:39:55;61.74;49.87;78.73;;
47109;Laerm;32856;51.422;6.794;2023-05-10T03:42:22;62.35;50.68;75.69;;
47109;Laerm;32856;51.422;6.794;2023-05-10T03:44:50;64.10;49.56;79.93;;
47109;Laerm;32856;51.422;6.794;2023-05-10T03:47:19;65.06;50.92;80.05;;
47109;Laerm;32856;51.422;6.794;2023-05-10T03:49:46;59.34;49.52;74.33;;
47109;Laerm;32856;51.422;6.794;2023-05-10T03:52:13;61.80;49.20;80.53;;
47109;Laerm;32856;51.422;6.794;2023-05-10T03:54:41;63.51;50.67;77.80;;
47109;Laerm;32856;51.422;6.794;2023-05-10T03:57:08;63.16;50.53;75.02;;
47109;Laerm;32856;51.422;6.794;2023-05-10T03:59:36;55.14;50.21;67.30;;
47109;Laerm;32856;51.422;6.794;2023-05-10T04:02:03;62.90;50.68;77.37;;
47109;Laerm;32856;51.422;6.794;2023-05-10T04:04:32;57.42;49.94;70.25;;
47109;Laerm;32856;51.422;6.794;2023-05-10T04:06:59;60.16;48.64;77.77;;
47109;Laerm;32856;51.422;6.794;2023-05-10T04:09:26;64.70;51.05;79.73;;
47109;Laerm;32856;51.422;6.794;2023-05-10T04:11:54;65.72;50.32;82.58;;
47109;Laerm;32856;51.422;6.794;2023-05-10T04:14:21;64.39;50.65;78.58;;
47109;Laerm;32856;51.422;6.794;2023-05-10T04:16:48;59.75;48.95;74.68;;
47109;Laerm;32856;51.422;6.794;2023-05-10T04:19:16;66.86;51.15;80.39;;
47109;Laerm;32856;51.422;6.794;2023-05-10T04:21:44;62.03;50.33;73.65;;
47109;Laerm;32856;51.422;6.794;2023-05-10T04:24:12;65.78;50.65;78.87;;
47109;Laerm;32856;51.422;6.794;2023-05-10T04:26:39;66.19;50.82;81.09;;
47109;Laerm;32856;51.422;6.794;2023-05-10T04:29:06;63.18;51.15;74.69;;
47109;Laerm;32856;51.422;6.794;2023-05-10T04:31:33;62.15;49.65;78.92;;
47109;Laerm;32856;51.422;6.794;2023-05-10T04:34:02;66.23;51.81;80.67;;
47109;Laerm;32856;51.422;6.794;2023-05-10T04:36:29;61.73;50.63;76.42;;
47109;Laerm;32856;51.422;6.794;2023-05-10T04:38:59;66.01;51.37;78.41;;
47109;Laerm;32856;51.422;6.794;2023-05-10T04:41:27;64.78;51.92;76.12;;
47109;Laerm;32856;51.422;6.794;2023-05-10T04:43:54;66.19;51.39;79.55;;
47109;Laerm;32856;51.422;6.794;2023-05-10T04:46:21;64.49;51.56;77.53;;
47109;Laerm;32856;51.422;6.794;2023-05-10T04:48:49;66.25;51.61;80.52;;
47109;Laerm;32856;51.422;6.794;2023-05-10T04:51:16;64.33;50.89;74.54;;
47109;Laerm;32856;51.422;6.794;2023-05-10T04:53:43;68.74;50.77;84.34;;
47109;Laerm;32856;51.422;6.794;2023-05-10T04:56:20;67.56;50.67;83.71;;
47109;Laerm;32856;51.422;6.794;2023-05-10T04:58:48;64.89;50.41;79.41;;
47109;Laerm;32856;51.422;6.794;2023-05-10T05:01:15;65.63;49.14;83.47;;
47109;Laerm;32856;51.422;6.794;2023-05-10T05:03:43;65.93;50.75;78.44;;
47109;Laerm;32856;51.422;6.794;2023-05-10T05:06:10;66.93;50.24;81.68;;
47109;Laerm;32856;51.422;6.794;2023-05-10T05:08:38;64.02;49.93;77.83;;
47109;Laerm;32856;51.422;6.794;2023-05-10T05:11:05;64.32;51.24;75.35;;
47109;Laerm;32856;51.422;6.794;2023-05-10T05:13:34;69.14;50.46;84.42;;
47109;Laerm;32856;51.422;6.794;2023-05-10T05:16:01;66.56;51.04;80.39;;
47109;Laerm;32856;51.422;6.794;2023-05-10T05:18:28;66.01;50.23;79.85;;
47109;Laerm;32856;51.422;6.794;2023-05-10T05:20:56;65.70;51.33;78.61;;
47109;Laerm;32856;51.422;6.794;2023-05-10T05:23:23;64.87;50.24;83.78;;
47109;Laerm;32856;51.422;6.794;2023-05-10T05:25:51;67.65;51.86;78.86;;
47109;Laerm;32856;51.422;6.794;2023-05-10T05:28:18;63.10;51.00;76.00;;
47109;Laerm;32856;51.422;6.794;2023-05-10T05:30:47;68.26;51.57;81.39;;
47109;Laerm;32856;51.422;6.794;2023-05-10T05:33:14;67.87;50.76;78.89;;
47109;Laerm;32856;51.422;6.794;2023-05-10T05:35:42;66.87;53.09;77.99;;
47109;Laerm;32856;51.422;6.794;2023-05-10T05:38:13;66.68;50.70;81.68;;
47109;Laerm;32856;51.422;6.794;2023-05-10T05:40:40;66.00;51.34;77.00;;
47109;Laerm;32856;51.422;6.794;2023-05-10T05:43:08;69.35;51.68;84.30;;
47109;Laerm;32856;51.422;6.794;2023-05-10T05:45:35;66.35;52.16;80.64;;
47109;Laerm;32856;51.422;6.794;2023-05-10T05:48:04;66.15;50.91;77.94;;
47109;Laerm;32856;51.422;6.794;2023-05-10T05:50:31;65.98;50.36;77.28;;
47109;Laerm;32856;51.422;6.794;2023-05-10T05:52:59;64.95;50.54;76.44;;
47109;Laerm;32856;51.422;6.794;2023-05-10T05:55:26;66.82;50.91;78.82;;
47109;Laerm;32856;51.422;6.794;2023-05-10T05:57:55;65.83;50.37;77.96;;
47109;Laerm;32856;51.422;6.794;2023-05-10T06:00:22;69.66;51.12;86.52;;
47109;Laerm;32856;51.422;6.794;2023-05-10T06:02:50;65.15;50.18;77.97;;
47109;Laerm;32856;51.422;6.794;2023-05-10T06:05:19;67.67;49.77;85.19;;
47109;Laerm;32856;51.422;6.794;2023-05-10T06:07:46;60.75;49.43;80.66;;
47109;Laerm;32856;51.422;6.794;2023-05-10T06:10:13;67.74;51.63;84.00;;
47109;Laerm;32856;51.422;6.794;2023-05-10T06:12:40;69.08;52.77;78.33;;
47109;Laerm;32856;51.422;6.794;2023-05-10T06:15:08;68.13;53.07;82.03;;
47109;Laerm;32856;51.422;6.794;2023-05-10T06:17:36;64.53;50.51;77.72;;
47109;Laerm;32856;51.422;6.794;2023-05-10T06:20:05;65.39;49.85;78.40;;
47109;Laerm;32856;51.422;6.794;2023-05-10T06:22:34;66.69;51.00;82.73;;
47109;Laerm;32856;51.422;6.794;2023-05-10T06:25:01;69.05;50.76;83.12;;
47109;Laerm;32856;51.422;6.794;2023-05-10T06:27:28;63.88;50.47;76.86;;
47109;Laerm;32856;51.422;6.794;2023-05-10T06:29:56;67.80;52.16;81.57;;
47109;Laerm;32856;51.422;6.794;2023-05-10T06:32:37;66.71;52.13;79.24;;
47109;Laerm;32856;51.422;6.794;2023-05-10T06:35:05;66.69;51.44;81.88;;
47109;Laerm;32856;51.422;6.794;2023-05-10T06:37:33;67.41;52.58;80.80;;
47109;Laerm;32856;51.422;6.794;2023-05-10T06:40:01;66.58;49.83;79.96;;
47109;Laerm;32856;51.422;6.794;2023-05-10T06:42:28;66.99;51.15;79.26;;
47109;Laerm;32856;51.422;6.794;2023-05-10T06:44:55;66.63;50.30;79.18;;
47109;Laerm;32856;51.422;6.794;2023-05-10T06:47:22;66.90;52.81;80.57;;
47109;Laerm;32856;51.422;6.794;2023-05-10T06:49:50;64.76;50.17;75.20;;
47109;Laerm;32856;51.422;6.794;2023-05-10T06:52:17;66.01;52.03;78.86;;
47109;Laerm;32856;51.422;6.794;2023-05-10T06:54:46;66.72;50.12;80.56;;
47109;Laerm;32856;51.422;6.794;2023-05-10T06:57:13;64.49;50.60;86.69;;
47109;Laerm;32856;51.422;6.794;2023-05-10T06:59:55;65.86;50.51;79.24;;
47109;Laerm;32856;51.422;6.794;2023-05-10T07:02:23;67.17;50.63;78.64;;
47109;Laerm;32856;51.422;6.794;2023-05-10T07:04:50;66.80;50.67;77.80;;
47109;Laerm;32856;51.422;6.794;2023-05-10T07:07:18;71.14;51.73;84.80;;
47109;Laerm;32856;51.422;6.794;2023-05-10T07:09:47;66.27;51.17;75.16;;
47109;Laerm;32856;51.422;6.794;2023-05-10T07:12:15;64.63;49.82;75.02;;
47109;Laerm;32856;51.422;6.794;2023-05-10T07:14:43;65.68;50.47;78.49;;
47109;Laerm;32856;51.422;6.794;2023-05-10T07:17:10;68.39;51.05;81.28;;
47109;Laerm;32856;51.422;6.794;2023-05-10T07:19:37;65.03;51.36;75.88;;
47109;Laerm;32856;51.422;6.794;2023-05-10T07:22:05;63.92;50.43;75.10;;
47109;Laerm;32856;51.422;6.794;2023-05-10T07:24:32;66.20;51.68;76.41;;
47109;Laerm;32856;51.422;6.794;2023-05-10T07:27:01;63.25;50.42;78.79;;
47109;Laerm;32856;51.422;6.794;2023-05-10T07:29:29;65.11;50.54;78.64;;
47109;Laerm;32856;51.422;6.794;2023-05-10T07:31:56;65.10;49.18;76.13;;
47109;Laerm;32856;51.422;6.794;2023-05-10T07:34:24;64.25;50.98;76.13;;
47109;Laerm;32856;51.422;6.794;2023-05-10T07:36:51;65.33;51.06;77.82;;
47109;Laerm;32856;51.422;6.794;2023-05-10T07:39:18;66.61;52.26;75.56;;
47109;Laerm;32856;51.422;6.794;2023-05-10T07:41:52;64.33;51.70;76.54;;
47109;Laerm;32856;51.422;6.794;2023-05-10T07:44:21;66.95;52.39;79.14;;
47109;Laerm;32856;51.422;6.794;2023-05-10T07:46:48;67.82;51.96;82.78;;
47109;Laerm;32856;51.422;6.794;2023-05-10T07:49:15;63.13;49.57;74.22;;
47109;Laerm;32856;51.422;6.794;2023-05-10T07:51:43;65.93;49.67;79.25;;
47109;Laerm;32856;51.422;6.794;2023-05-10T07:54:10;66.96;51.18;75.22;;
47109;Laerm;32856;51.422;6.794;2023-05-10T07:56:38;65.44;50.75;76.01;;
47109;Laerm;32856;51.422;6.794;2023-05-10T07:59:14;68.13;50.53;84.04;;
47109;Laerm;32856;51.422;6.794;2023-05-10T08:01:43;64.69;50.01;81.67;;
47109;Laerm;32856;51.422;6.794;2023-05-10T08:04:10;63.24;50.49;74.78;;
47109;Laerm;32856;51.422;6.794;2023-05-10T08:06:38;67.56;51.74;80.63;;
47109;Laerm;32856;51.422;6.794;2023-05-10T08:09:05;68.03;50.81;80.44;;
47109;Laerm;32856;51.422;6.794;2023-05-10T08:11:32;62.39;49.74;77.81;;
47109;Laerm;32856;51.422;6.794;2023-05-10T08:14:00;64.89;49.34;77.90;;
47109;Laerm;32856;51.422;6.794;2023-05-10T08:16:27;65.07;50.83;78.34;;
47109;Laerm;32856;51.422;6.794;2023-05-10T08:18:56;65.90;50.78;77.14;;
47109;Laerm;32856;51.422;6.794;2023-05-10T08:21:24;61.94;50.06;74.46;;
47109;Laerm;32856;51.422;6.794;2023-05-10T08:23:52;67.46;50.35;82.62;;
47109;Laerm;32856;51.422;6.794;2023-05-10T08:26:19;64.96;49.30;76.80;;
47109;Laerm;32856;51.422;6.794;2023-05-10T08:28:47;67.01;50.68;83.31;;
47109;Laerm;32856;51.422;6.794;2023-05-10T08:31:14;62.83;48.81;81.38;;
47109;Laerm;32856;51.422;6.794;2023-05-10T08:33:42;62.63;49.90;76.53;;
47109;Laerm;32856;51.422;6.794;2023-05-10T08:36:11;64.31;50.49;76.70;;
47109;Laerm;32856;51.422;6.794;2023-05-10T08:38:40;64.68;49.57;75.87;;
47109;Laerm;32856;51.422;6.794;2023-05-10T08:41:07;68.11;50.34;86.35;;
47109;Laerm;32856;51.422;6.794;2023-05-10T08:43:34;61.31;47.38;73.19;;
47109;Laerm;32856;51.422;6.794;2023-05-10T08:46:03;64.84;49.32;81.79;;
47109;Laerm;32856;51.422;6.794;2023-05-10T08:48:32;58.08;48.46;71.62;;
47109;Laerm;32856;51.422;6.794;2023-05-10T08:51:01;64.75;50.74;74.77;;
47109;Laerm;32856;51.422;6.794;2023-05-10T08:53:31;66.27;51.93;80.30;;
47109;Laerm;32856;51.422;6.794;2023-05-10T08:56:01;67.07;50.80;81.18;;
47109;Laerm;32856;51.422;6.794;2023-05-10T08:58:28;63.03;49.52;77.32;;
47109;Laerm;32856;51.422;6.794;2023-05-10T09:00:57;65.24;50.21;78.61;;
47109;Laerm;32856;51.422;6.794;2023-05-10T09:03:24;62.54;50.20;75.04;;
47109;Laerm;32856;51.422;6.794;2023-05-10T09:05:52;68.89;49.74;87.21;;
47109;Laerm;32856;51.422;6.794;2023-05-10T09:08:22;65.93;50.31;79.71;;
47109;Laerm;32856;51.422;6.794;2023-05-10T09:10:52;64.74;49.71;79.98;;
47109;Laerm;32856;51.422;6.794;2023-05-10T09:13:20;61.08;49.53;74.61;;
47109;Laerm;32856;51.422;6.794;2023-05-10T09:15:48;64.75;50.25;84.43;;
47109;Laerm;32856;51.422;6.794;2023-05-10T09:18:15;61.67;49.88;77.57;;
47109;Laerm;32856;51.422;6.794;2023-05-10T09:20:43;61.80;49.46;74.49;;
47109;Laerm;32856;51.422;6.794;2023-05-10T09:23:10;65.47;51.48;78.66;;
47109;Laerm;32856;51.422;6.794;2023-05-10T09:25:38;69.12;51.76;87.10;;
47109;Laerm;32856;51.422;6.794;2023-05-10T09:28:07;66.44;51.82;78.19;;
47109;Laerm;32856;51.422;6.794;2023-05-10T09:30:35;65.56;50.37;83.44;;
47109;Laerm;32856;51.422;6.794;2023-05-10T09:33:02;63.75;50.32;75.28;;
47109;Laerm;32856;51.422;6.794;2023-05-10T09:35:30;63.36;50.86;75.94;;
47109;Laerm;32856;51.422;6.794;2023-05-10T09:37:59;62.90;50.51;75.95;;
47109;Laerm;32856;51.422;6.794;2023-05-10T09:40:27;66.80;50.94;81.14;;
47109;Laerm;32856;51.422;6.794;2023-05-10T09:42:56;64.47;49.50;79.16;;
47109;Laerm;32856;51.422;6.794;2023-05-10T09:45:25;63.75;50.78;77.39;;
47109;Laerm;32856;51.422;6.794;2023-05-10T09:47:53;66.18;51.93;79.91;;
47109;Laerm;32856;51.422;6.794;2023-05-10T09:50:21;64.07;49.25;78.03;;
47109;Laerm;32856;51.422;6.794;2023-05-10T09:52:49;65.52;49.25;76.58;;
47109;Laerm;32856;51.422;6.794;2023-05-10T09:55:17;65.79;50.19;75.99;;
47109;Laerm;32856;51.422;6.794;2023-05-10T09:57:46;67.52;52.20;80.51;;
47109;Laerm;32856;51.422;6.794;2023-05-10T10:00:18;65.60;50.04;81.13;;
47109;Laerm;32856;51.422;6.794;2023-05-10T10:02:48;66.03;50.73;81.03;;
47109;Laerm;32856;51.422;6.794;2023-05-10T10:05:20;65.69;49.39;77.70;;
47109;Laerm;32856;51.422;6.794;2023-05-10T10:07:48;64.56;50.06;75.90;;
47109;Laerm;32856;51.422;6.794;2023-05-10T10:10:16;69.49;50.26;84.56;;
47109;Laerm;32856;51.422;6.794;2023-05-10T10:12:44;64.20;48.03;79.66;;
47109;Laerm;32856;51.422;6.794;2023-05-10T10:15:11;64.99;49.60;80.59;;
47109;Laerm;32856;51.422;6.794;2023-05-10T10:17:41;65.39;50.15;76.65;;
47109;Laerm;32856;51.422;6.794;2023-05-10T10:20:11;60.27;49.27;73.72;;
47109;Laerm;32856;51.422;6.794;2023-05-10T10:22:39;64.86;50.79;75.08;;
47109;Laerm;32856;51.422;6.794;2023-05-10T10:25:07;64.88;50.92;81.28;;
47109;Laerm;32856;51.422;6.794;2023-05-10T10:27:37;66.28;50.91;78.01;;
47109;Laerm;32856;51.422;6.794;2023-05-10T10:30:11;65.42;50.77;79.02;;
47109;Laerm;32856;51.422;6.794;2023-05-10T10:32:48;63.02;49.08;73.62;;
47109;Laerm;32856;51.422;6.794;2023-05-10T10:35:23;64.22;49.94;75.27;;
47109;Laerm;32856;51.422;6.794;2023-05-10T10:37:51;70.30;50.17;88.15;;
47109;Laerm;32856;51.422;6.794;2023-05-10T10:40:25;62.91;49.33;76.03;;
47109;Laerm;32856;51.422;6.794;2023-05-10T10:42:53;62.36;49.45;76.06;;
47109;Laerm;32856;51.422;6.794;2023-05-10T10:45:21;65.63;48.45;81.36;;
47109;Laerm;32856;51.422;6.794;2023-05-10T10:47:50;66.85;49.82;83.34;;
47109;Laerm;32856;51.422;6.794;2023-05-10T10:50:20;64.31;50.04;80.13;;
47109;Laerm;32856;51.422;6.794;2023-05-10T10:52:49;63.20;48.78;76.51;;
47109;Laerm;32856;51.422;6.794;2023-05-10T10:55:19;63.63;48.03;75.23;;
47109;Laerm;32856;51.422;6.794;2023-05-10T10:57:49;68.21;49.70;83.41;;
47109;Laerm;32856;51.422;6.794;2023-05-10T11:00:24;66.09;48.31;81.78;;
47109;Laerm;32856;51.422;6.794;2023-05-10T11:02:52;66.25;49.12;79.37;;
47109;Laerm;32856;51.422;6.794;2023-05-10T11:05:24;64.95;48.37;84.03;;
47109;Laerm;32856;51.422;6.794;2023-05-10T11:07:53;64.75;50.56;78.17;;
47109;Laerm;32856;51.422;6.794;2023-05-10T11:10:21;64.81;48.90;77.97;;
47109;Laerm;32856;51.422;6.794;2023-05-10T11:12:51;64.13;48.89;75.42;;
47109;Laerm;32856;51.422;6.794;2023-05-10T11:15:19;67.22;49.50;81.55;;
47109;Laerm;32856;51.422;6.794;2023-05-10T11:17:47;64.50;50.39;76.41;;
47109;Laerm;32856;51.422;6.794;2023-05-10T11:20:18;64.02;50.08;75.17;;
47109;Laerm;32856;51.422;6.794;2023-05-10T11:22:49;63.53;49.23;75.21;;
47109;Laerm;32856;51.422;6.794;2023-05-10T11:25:18;64.29;50.47;80.62;;
47109;Laerm;32856;51.422;6.794;2023-05-10T11:27:46;64.37;50.32;79.27;;
47109;Laerm;32856;51.422;6.794;2023-05-10T11:30:14;64.34;50.47;80.73;;
47109;Laerm;32856;51.422;6.794;2023-05-10T11:32:42;62.92;50.76;74.66;;
47109;Laerm;32856;51.422;6.794;2023-05-10T11:35:10;64.20;49.91;75.87;;
47109;Laerm;32856;51.422;6.794;2023-05-10T11:37:38;64.97;49.23;75.78;;
47109;Laerm;32856;51.422;6.794;2023-05-10T11:40:07;63.82;49.67;75.60;;
47109;Laerm;32856;51.422;6.794;2023-05-10T11:42:37;67.95;48.42;83.85;;
47109;Laerm;32856;51.422;6.794;2023-05-10T11:45:05;68.08;48.15;88.38;;
47109;Laerm;32856;51.422;6.794;2023-05-10T11:47:32;63.10;50.44;74.55;;
47109;Laerm;32856;51.422;6.794;2023-05-10T11:50:01;64.96;49.65;77.28;;
47109;Laerm;32856;51.422;6.794;2023-05-10T11:52:29;65.48;50.48;76.14;;
47109;Laerm;32856;51.422;6.794;2023-05-10T11:54:57;67.20;49.90;79.65;;
47109;Laerm;32856;51.422;6.794;2023-05-10T11:57:25;64.03;50.07;74.97;;
47109;Laerm;32856;51.422;6.794;2023-05-10T11:59:55;66.39;48.90;82.36;;
47109;Laerm;32856;51.422;6.794;2023-05-10T12:02:23;64.13;50.64;75.31;;
47109;Laerm;32856;51.422;6.794;2023-05-10T12:04:50;66.46;51.93;75.17;;
47109;Laerm;32856;51.422;6.794;2023-05-10T12:07:18;66.53;52.39;76.42;;
47109;Laerm;32856;51.422;6.794;2023-05-10T12:12:34;65.36;48.46;87.06;;
47109;Laerm;32856;51.422;6.794;2023-05-10T12:15:03;66.62;49.29;77.65;;
47109;Laerm;32856;51.422;6.794;2023-05-10T12:17:31;65.35;49.29;79.82;;
47109;Laerm;32856;51.422;6.794;2023-05-10T12:19:59;63.64;48.39;76.44;;
47109;Laerm;32856;51.422;6.794;2023-05-10T12:22:39;62.92;47.46;75.90;;
47109;Laerm;32856;51.422;6.794;2023-05-10T12:25:08;62.33;46.73;74.14;;
47109;Laerm;32856;51.422;6.794;2023-05-10T12:27:35;68.77;51.32;83.11;;
47109;Laerm;32856;51.422;6.794;2023-05-10T12:30:04;68.59;48.83;87.14;;
47109;Laerm;32856;51.422;6.794;2023-05-10T12:32:39;67.16;48.10;85.51;;
47109;Laerm;32856;51.422;6.794;2023-05-10T12:35:07;66.07;48.10;83.77;;
47109;Laerm;32856;51.422;6.794;2023-05-10T12:37:34;65.31;50.85;75.22;;
47109;Laerm;32856;51.422;6.794;2023-05-10T12:40:06;65.51;49.24;79.15;;
47109;Laerm;32856;51.422;6.794;2023-05-10T12:42:34;67.13;47.14;84.71;;
47109;Laerm;32856;51.422;6.794;2023-05-10T12:45:01;65.11;47.96;79.17;;
47109;Laerm;32856;51.422;6.794;2023-05-10T12:47:31;67.19;48.85;81.34;;
47109;Laerm;32856;51.422;6.794;2023-05-10T12:49:59;63.80;49.29;74.77;;
47109;Laerm;32856;51.422;6.794;2023-05-10T12:52:27;64.36;48.45;74.96;;
47109;Laerm;32856;51.422;6.794;2023-05-10T12:54:54;62.78;47.44;73.27;;
47109;Laerm;32856;51.422;6.794;2023-05-10T12:57:21;66.98;49.65;80.94;;
47109;Laerm;32856;51.422;6.794;2023-05-10T12:59:49;65.21;47.88;76.69;;
47109;Laerm;32856;51.422;6.794;2023-05-10T13:02:16;66.43;47.88;82.36;;
47109;Laerm;32856;51.422;6.794;2023-05-10T13:04:46;64.00;48.60;77.59;;
47109;Laerm;32856;51.422;6.794;2023-05-10T13:07:16;65.09;48.02;78.50;;
47109;Laerm;32856;51.422;6.794;2023-05-10T13:09:43;64.29;47.91;74.52;;
47109;Laerm;32856;51.422;6.794;2023-05-10T13:12:10;64.87;49.71;77.00;;
47109;Laerm;32856;51.422;6.794;2023-05-10T13:14:38;65.84;46.38;79.06;;
47109;Laerm;32856;51.422;6.794;2023-05-10T13:17:06;65.16;47.61;78.23;;
47109;Laerm;32856;51.422;6.794;2023-05-10T13:19:34;65.04;49.81;82.35;;
47109;Laerm;32856;51.422;6.794;2023-05-10T13:22:03;66.38;48.54;78.94;;
47109;Laerm;32856;51.422;6.794;2023-05-10T13:24:31;66.11;50.36;82.00;;
47109;Laerm;32856;51.422;6.794;2023-05-10T13:26:58;67.14;49.45;80.75;;
47109;Laerm;32856;51.422;6.794;2023-05-10T13:29:26;63.68;46.30;74.35;;
47109;Laerm;32856;51.422;6.794;2023-05-10T13:31:53;64.13;49.96;75.07;;
47109;Laerm;32856;51.422;6.794;2023-05-10T13:34:21;64.20;47.40;74.37;;
47109;Laerm;32856;51.422;6.794;2023-05-10T13:36:48;67.63;51.13;81.02;;
47109;Laerm;32856;51.422;6.794;2023-05-10T13:39:17;66.79;50.91;78.49;;
47109;Laerm;32856;51.422;6.794;2023-05-10T13:41:44;65.95;50.60;78.06;;
47109;Laerm;32856;51.422;6.794;2023-05-10T13:44:12;66.53;47.18;77.80;;
47109;Laerm;32856;51.422;6.794;2023-05-10T13:46:40;66.40;49.74;80.33;;
47109;Laerm;32856;51.422;6.794;2023-05-10T13:49:08;66.70;48.07;78.11;;
47109;Laerm;32856;51.422;6.794;2023-05-10T13:51:36;65.49;47.98;78.51;;
47109;Laerm;32856;51.422;6.794;2023-05-10T13:54:03;65.48;48.05;78.80;;
47109;Laerm;32856;51.422;6.794;2023-05-10T13:56:32;67.56;49.15;85.69;;
47109;Laerm;32856;51.422;6.794;2023-05-10T13:58:59;65.64;47.14;76.95;;